Time,TemperatureF,DewpointF,PressureIn,WindDirection,WindDirectionDegrees,WindSpeedMPH,WindSpeedGustMPH,Humidity,HourlyPrecipIn,Conditions,Clouds,dailyrainin,SoftwareType,DateUTC
2013-08-31 00:01:00,72.3,67.6,29.98,NNE,22,0.0,0.0,85,0.00,,CLR,0.00,VWS V12.08,2013-08-31 04:01:00,
2013-08-31 00:02:00,72.3,67.6,29.98,NNE,22,0.0,0.0,85,0.00,,CLR,0.00,VWS V12.08,2013-08-31 04:02:00,
2013-08-31 00:03:00,72.3,67.6,29.98,NNE,22,0.0,0.0,85,0.00,,CLR,0.00,VWS V12.08,2013-08-31 04:03:00,
2013-08-31 00:08:00,72.3,67.6,29.98,ENE,68,0.0,0.0,85,0.00,,CLR,0.00,VWS V12.08,2013-08-31 04:08:00,
2013-08-31 00:13:00,72.3,67.6,29.98,East,90,0.0,0.0,85,0.00,,CLR,0.00,VWS V12.08,2013-08-31 04:13:00,
2013-08-31 00:18:00,72.1,67.4,29.98,East,90,0.0,0.0,85,0.00,,CLR,0.00,VWS V12.08,2013-08-31 04:18:00,
2013-08-31 00:23:00,72.1,67.4,29.98,East,90,0.0,0.0,85,0.00,,CLR,0.00,VWS V12.08,2013-08-31 04:23:00,
2013-08-31 00:28:00,72.1,67.4,29.98,East,90,0.0,0.0,85,0.00,,CLR,0.00,VWS V12.08,2013-08-31 04:28:00,
2013-08-31 00:33:00,72.1,67.4,29.98,East,90,0.0,0.0,85,0.00,,CLR,0.00,VWS V12.08,2013-08-31 04:33:00,
2013-08-31 00:38:00,71.8,67.0,29.98,ENE,68,0.0,0.0,85,0.00,,CLR,0.00,VWS V12.08,2013-08-31 04:38:00,
2013-08-31 00:43:00,71.8,67.0,29.98,ENE,68,0.0,0.0,85,0.00,,CLR,0.00,VWS V12.08,2013-08-31 04:43:00,
2013-08-31 00:48:00,71.4,66.7,29.98,East,90,0.0,0.0,85,0.00,,CLR,0.00,VWS V12.08,2013-08-31 04:48:00,
2013-08-31 00:53:00,71.4,66.7,29.98,East,90,0.0,0.0,85,0.00,,CLR,0.00,VWS V12.08,2013-08-31 04:53:00,
2013-08-31 00:58:00,71.4,66.7,29.98,East,90,0.0,0.0,85,0.00,,CLR,0.00,VWS V12.08,2013-08-31 04:58:00,
2013-08-31 01:03:00,71.4,66.7,29.98,East,90,0.0,0.0,85,0.00,,CLR,0.00,VWS V12.08,2013-08-31 05:03:00,
2013-08-31 01:08:00,71.4,66.7,29.98,East,90,0.0,0.0,85,0.00,,CLR,0.00,VWS V12.08,2013-08-31 05:08:00,
2013-08-31 01:13:00,71.4,66.7,29.98,East,90,0.0,0.0,85,0.00,,CLR,0.00,VWS V12.08,2013-08-31 05:13:00,
2013-08-31 01:18:00,71.4,66.7,29.98,East,90,0.0,0.0,85,0.00,,CLR,0.00,VWS V12.08,2013-08-31 05:18:00,
2013-08-31 01:20:00,71.4,66.7,29.98,East,90,0.0,0.0,85,0.00,,CLR,0.00,VWS V12.08,2013-08-31 05:20:00,
2013-08-31 01:25:00,71.4,66.7,29.98,East,90,0.0,0.0,85,0.00,,CLR,0.00,VWS V12.08,2013-08-31 05:25:00,
2013-08-31 01:30:00,71.4,66.7,29.97,East,90,0.0,0.0,85,0.00,,CLR,0.00,VWS V12.08,2013-08-31 05:30:00,
2013-08-31 01:35:00,71.2,66.5,29.98,East,90,0.0,0.0,85,0.00,,CLR,0.00,VWS V12.08,2013-08-31 05:35:00,
2013-08-31 01:40:00,71.2,66.8,29.98,East,90,0.0,0.0,86,0.00,,CLR,0.00,VWS V12.08,2013-08-31 05:40:00,
2013-08-31 01:45:00,71.2,66.8,29.97,East,90,0.0,0.0,86,0.00,,CLR,0.00,VWS V12.08,2013-08-31 05:45:00,
2013-08-31 01:50:00,71.2,66.8,29.97,East,90,0.0,0.0,86,0.00,,CLR,0.00,VWS V12.08,2013-08-31 05:50:00,
2013-08-31 01:55:00,71.2,66.8,29.97,East,90,0.0,0.0,86,0.00,,CLR,0.00,VWS V12.08,2013-08-31 05:55:00,
2013-08-31 02:00:00,70.9,66.5,29.97,East,90,0.0,0.0,86,0.00,,CLR,0.00,VWS V12.08,2013-08-31 06:00:00,
2013-08-31 02:05:00,70.9,66.8,29.97,East,90,0.0,0.0,87,0.00,,CLR,0.00,VWS V12.08,2013-08-31 06:05:00,
2013-08-31 02:10:00,70.9,66.8,29.96,East,90,0.0,0.0,87,0.00,,CLR,0.00,VWS V12.08,2013-08-31 06:10:00,
2013-08-31 02:15:00,70.9,66.8,29.97,East,90,0.0,0.0,87,0.00,,CLR,0.00,VWS V12.08,2013-08-31 06:15:00,
2013-08-31 02:20:00,70.9,66.8,29.96,East,90,0.0,0.0,87,0.00,,CLR,0.00,VWS V12.08,2013-08-31 06:20:00,
2013-08-31 02:25:00,70.9,66.8,29.96,East,90,0.0,0.0,87,0.00,,CLR,0.00,VWS V12.08,2013-08-31 06:25:00,
2013-08-31 02:30:00,70.9,66.8,29.97,East,90,0.0,0.0,87,0.00,,CLR,0.00,VWS V12.08,2013-08-31 06:30:00,
2013-08-31 02:35:00,70.9,66.8,29.96,East,90,0.0,0.0,87,0.00,,CLR,0.00,VWS V12.08,2013-08-31 06:35:00,
2013-08-31 02:40:00,70.9,66.8,29.96,East,90,0.0,0.0,87,0.00,,CLR,0.00,VWS V12.08,2013-08-31 06:40:00,
2013-08-31 02:45:00,70.9,66.8,29.96,East,90,0.0,0.0,87,0.00,,CLR,0.00,VWS V12.08,2013-08-31 06:45:00,
2013-08-31 02:50:00,70.3,66.3,29.96,NW,315,0.0,0.0,87,0.00,,CLR,0.00,VWS V12.08,2013-08-31 06:50:00,
2013-08-31 02:55:00,70.2,66.1,29.97,NW,315,0.0,0.0,87,0.00,,CLR,0.00,VWS V12.08,2013-08-31 06:55:00,
2013-08-31 03:00:00,70.2,66.1,29.97,NW,315,0.0,0.0,87,0.00,,CLR,0.00,VWS V12.08,2013-08-31 07:00:00,
2013-08-31 03:05:00,70.2,66.1,29.96,NW,315,0.0,0.0,87,0.00,,CLR,0.00,VWS V12.08,2013-08-31 07:05:00,
2013-08-31 03:10:00,70.0,65.9,29.96,NW,315,0.0,0.0,87,0.00,,CLR,0.00,VWS V12.08,2013-08-31 07:10:00,
2013-08-31 03:15:00,70.0,65.9,29.96,NW,315,0.0,0.0,87,0.00,,CLR,0.00,VWS V12.08,2013-08-31 07:15:00,
2013-08-31 03:20:00,69.8,65.8,29.97,North,0,0.0,0.0,87,0.00,,CLR,0.00,VWS V12.08,2013-08-31 07:20:00,
2013-08-31 03:25:00,69.8,65.8,29.97,North,0,0.0,0.0,87,0.00,,CLR,0.00,VWS V12.08,2013-08-31 07:25:00,
2013-08-31 03:30:00,69.6,65.6,29.97,NNE,22,0.0,0.0,87,0.00,,CLR,0.00,VWS V12.08,2013-08-31 07:30:00,
2013-08-31 03:35:00,69.6,65.6,29.96,NNE,22,0.0,0.0,87,0.00,,CLR,0.00,VWS V12.08,2013-08-31 07:35:00,
2013-08-31 03:40:00,69.6,65.6,29.96,North,0,0.0,0.0,87,0.00,,CLR,0.00,VWS V12.08,2013-08-31 07:40:00,
2013-08-31 03:45:00,69.6,65.6,29.96,NNE,22,0.0,0.0,87,0.00,,CLR,0.00,VWS V12.08,2013-08-31 07:45:00,
2013-08-31 03:50:00,69.4,65.4,29.96,NNE,22,0.0,0.0,87,0.00,,CLR,0.00,VWS V12.08,2013-08-31 07:50:00,
2013-08-31 03:55:00,69.4,65.4,29.97,NNE,22,0.0,0.0,87,0.00,,CLR,0.00,VWS V12.08,2013-08-31 07:55:00,
2013-08-31 04:00:00,69.4,65.4,29.97,ENE,68,0.0,0.0,87,0.00,,CLR,0.00,VWS V12.08,2013-08-31 08:00:00,
2013-08-31 04:05:00,69.1,65.4,29.97,ENE,68,0.0,0.0,88,0.00,,CLR,0.00,VWS V12.08,2013-08-31 08:05:00,
2013-08-31 04:10:00,69.1,65.4,29.97,ENE,68,0.0,0.0,88,0.00,,CLR,0.00,VWS V12.08,2013-08-31 08:10:00,
2013-08-31 04:15:00,69.1,65.4,29.96,ENE,68,0.0,0.0,88,0.00,,CLR,0.00,VWS V12.08,2013-08-31 08:15:00,
2013-08-31 04:20:00,69.1,65.1,29.96,ENE,68,0.0,0.0,87,0.00,,CLR,0.00,VWS V12.08,2013-08-31 08:20:00,
2013-08-31 04:25:00,69.1,65.1,29.96,ENE,68,0.0,0.0,87,0.00,,CLR,0.00,VWS V12.08,2013-08-31 08:25:00,
2013-08-31 04:30:00,69.1,65.1,29.96,ENE,68,0.0,0.0,87,0.00,,CLR,0.00,VWS V12.08,2013-08-31 08:30:00,
2013-08-31 04:35:00,68.9,64.9,29.96,ENE,68,0.0,0.0,87,0.00,,CLR,0.00,VWS V12.08,2013-08-31 08:35:00,
2013-08-31 04:40:00,68.9,64.9,29.95,ENE,68,0.0,0.0,87,0.00,,CLR,0.00,VWS V12.08,2013-08-31 08:40:00,
2013-08-31 04:45:00,68.7,64.7,29.96,ENE,68,0.0,0.0,87,0.00,,CLR,0.00,VWS V12.08,2013-08-31 08:45:00,
2013-08-31 04:50:00,68.5,64.5,29.96,ENE,68,0.0,0.0,87,0.00,,CLR,0.00,VWS V12.08,2013-08-31 08:50:00,
2013-08-31 04:55:00,68.5,64.5,29.96,East,90,0.0,0.0,87,0.00,,CLR,0.00,VWS V12.08,2013-08-31 08:55:00,
2013-08-31 05:00:00,68.5,64.5,29.96,East,90,0.0,0.0,87,0.00,,CLR,0.00,VWS V12.08,2013-08-31 09:00:00,
2013-08-31 05:05:00,68.5,64.8,29.96,East,90,0.0,0.0,88,0.00,,CLR,0.00,VWS V12.08,2013-08-31 09:05:00,
2013-08-31 05:10:00,68.5,64.8,29.96,East,90,0.0,0.0,88,0.00,,CLR,0.00,VWS V12.08,2013-08-31 09:10:00,
2013-08-31 05:15:00,68.4,64.7,29.96,East,90,0.0,0.0,88,0.00,,CLR,0.00,VWS V12.08,2013-08-31 09:15:00,
2013-08-31 05:20:00,68.4,64.7,29.95,East,90,0.0,0.0,88,0.00,,CLR,0.00,VWS V12.08,2013-08-31 09:20:00,
2013-08-31 05:25:00,68.4,64.7,29.96,East,90,0.0,0.0,88,0.00,,CLR,0.00,VWS V12.08,2013-08-31 09:25:00,
2013-08-31 05:30:00,68.4,64.7,29.96,East,90,0.0,0.0,88,0.00,,CLR,0.00,VWS V12.08,2013-08-31 09:30:00,
2013-08-31 05:35:00,68.4,64.7,29.95,East,90,0.0,0.0,88,0.00,,CLR,0.00,VWS V12.08,2013-08-31 09:35:00,
2013-08-31 05:40:00,68.2,64.5,29.96,East,90,0.0,0.0,88,0.00,,CLR,0.00,VWS V12.08,2013-08-31 09:40:00,
2013-08-31 05:45:00,68.2,64.5,29.96,East,90,0.0,0.0,88,0.00,,CLR,0.00,VWS V12.08,2013-08-31 09:45:00,
2013-08-31 05:50:00,68.2,64.5,29.96,East,90,0.0,0.0,88,0.00,,CLR,0.00,VWS V12.08,2013-08-31 09:50:00,
2013-08-31 05:55:00,68.2,64.5,29.95,East,90,0.0,0.0,88,0.00,,CLR,0.00,VWS V12.08,2013-08-31 09:55:00,
2013-08-31 06:00:00,68.2,64.5,29.95,East,90,0.0,0.0,88,0.00,,CLR,0.00,VWS V12.08,2013-08-31 10:00:00,
2013-08-31 06:05:00,68.2,64.5,29.95,East,90,0.0,0.0,88,0.00,,CLR,0.00,VWS V12.08,2013-08-31 10:05:00,
2013-08-31 06:10:00,68.0,64.3,29.96,East,90,0.0,0.0,88,0.00,,CLR,0.00,VWS V12.08,2013-08-31 10:10:00,
2013-08-31 06:15:00,68.0,64.3,29.96,East,90,0.0,0.0,88,0.00,,CLR,0.00,VWS V12.08,2013-08-31 10:15:00,
2013-08-31 06:20:00,68.0,64.3,29.96,East,90,0.0,0.0,88,0.00,,CLR,0.00,VWS V12.08,2013-08-31 10:20:00,
2013-08-31 06:25:00,67.8,64.1,29.96,East,90,0.0,0.0,88,0.00,,CLR,0.00,VWS V12.08,2013-08-31 10:25:00,
2013-08-31 06:30:00,67.8,64.1,29.96,East,90,0.0,0.0,88,0.00,,CLR,0.00,VWS V12.08,2013-08-31 10:30:00,
2013-08-31 06:35:00,67.8,64.1,29.95,East,90,0.0,0.0,88,0.00,,CLR,0.00,VWS V12.08,2013-08-31 10:35:00,
2013-08-31 06:40:00,67.8,64.1,29.96,East,90,0.0,0.0,88,0.00,,CLR,0.00,VWS V12.08,2013-08-31 10:40:00,
2013-08-31 06:45:00,67.8,64.1,29.96,East,90,0.0,0.0,88,0.00,,CLR,0.00,VWS V12.08,2013-08-31 10:45:00,
2013-08-31 06:50:00,67.8,64.1,29.95,East,90,0.0,0.0,88,0.00,,CLR,0.00,VWS V12.08,2013-08-31 10:50:00,
2013-08-31 06:55:00,67.6,64.0,29.95,East,90,0.0,0.0,88,0.00,,CLR,0.00,VWS V12.08,2013-08-31 10:55:00,
2013-08-31 07:00:00,67.6,64.0,29.95,East,90,0.0,0.0,88,0.00,,CLR,0.00,VWS V12.08,2013-08-31 11:00:00,
2013-08-31 07:05:00,67.6,64.0,29.95,East,90,0.0,0.0,88,0.00,,CLR,0.00,VWS V12.08,2013-08-31 11:05:00,
2013-08-31 07:10:00,67.6,64.0,29.96,East,90,0.0,0.0,88,0.00,,CLR,0.00,VWS V12.08,2013-08-31 11:10:00,
2013-08-31 07:15:00,67.6,64.0,29.95,East,90,0.0,0.0,88,0.00,,CLR,0.00,VWS V12.08,2013-08-31 11:15:00,
2013-08-31 07:20:00,67.6,64.0,29.96,East,90,0.0,0.0,88,0.00,,CLR,0.00,VWS V12.08,2013-08-31 11:20:00,
2013-08-31 07:25:00,67.6,64.0,29.96,East,90,0.0,0.0,88,0.00,,CLR,0.00,VWS V12.08,2013-08-31 11:25:00,
2013-08-31 07:30:00,67.6,64.0,29.96,East,90,0.0,0.0,88,0.00,,CLR,0.00,VWS V12.08,2013-08-31 11:30:00,
2013-08-31 07:35:00,67.6,64.0,29.96,East,90,0.0,0.0,88,0.00,,CLR,0.00,VWS V12.08,2013-08-31 11:35:00,
2013-08-31 07:40:00,67.6,64.0,29.96,East,90,0.0,0.0,88,0.00,,CLR,0.00,VWS V12.08,2013-08-31 11:40:00,
2013-08-31 07:45:00,67.6,64.0,29.96,East,90,0.0,0.0,88,0.00,,CLR,0.00,VWS V12.08,2013-08-31 11:45:00,
2013-08-31 07:50:00,67.8,64.1,29.96,East,90,0.0,0.0,88,0.00,,CLR,0.00,VWS V12.08,2013-08-31 11:50:00,
2013-08-31 07:55:00,67.8,64.1,29.96,East,90,0.0,0.0,88,0.00,,CLR,0.00,VWS V12.08,2013-08-31 11:55:00,
2013-08-31 08:00:00,67.8,64.1,29.96,East,90,0.0,0.0,88,0.00,,CLR,0.00,VWS V12.08,2013-08-31 12:00:00,
2013-08-31 08:05:00,67.8,64.1,29.96,East,90,0.0,0.0,88,0.00,,CLR,0.00,VWS V12.08,2013-08-31 12:05:00,
2013-08-31 08:10:00,67.8,64.1,29.96,East,90,0.0,0.0,88,0.00,,CLR,0.00,VWS V12.08,2013-08-31 12:10:00,
2013-08-31 08:15:00,67.8,64.1,29.96,East,90,0.0,0.0,88,0.00,,CLR,0.00,VWS V12.08,2013-08-31 12:15:00,
2013-08-31 08:20:00,68.4,65.0,29.96,East,90,0.0,0.0,89,0.00,,CLR,0.00,VWS V12.08,2013-08-31 12:20:00,
2013-08-31 08:25:00,68.4,65.0,29.97,East,90,0.0,0.0,89,0.00,,CLR,0.00,VWS V12.08,2013-08-31 12:25:00,
2013-08-31 08:30:00,68.7,65.3,29.97,East,90,0.0,0.0,89,0.00,,CLR,0.00,VWS V12.08,2013-08-31 12:30:00,
2013-08-31 08:35:00,68.9,65.5,29.97,East,90,0.0,0.0,89,0.00,,CLR,0.00,VWS V12.08,2013-08-31 12:35:00,
2013-08-31 08:40:00,68.9,65.5,29.97,East,90,0.0,0.0,89,0.00,,CLR,0.00,VWS V12.08,2013-08-31 12:40:00,
2013-08-31 08:45:00,69.3,65.9,29.97,East,90,0.0,0.0,89,0.00,,CLR,0.00,VWS V12.08,2013-08-31 12:45:00,
2013-08-31 08:50:00,69.6,66.2,29.97,NW,315,0.9,0.9,89,0.00,,CLR,0.00,VWS V12.08,2013-08-31 12:50:00,
2013-08-31 08:55:00,69.6,66.2,29.97,NW,315,0.9,0.9,89,0.00,,CLR,0.00,VWS V12.08,2013-08-31 12:55:00,
2013-08-31 09:00:00,69.6,66.6,29.97,NW,315,0.9,0.9,90,0.00,,CLR,0.00,VWS V12.08,2013-08-31 13:00:00,
2013-08-31 09:05:00,69.6,66.6,29.97,NW,315,0.9,0.9,90,0.00,,CLR,0.00,VWS V12.08,2013-08-31 13:05:00,
2013-08-31 09:10:00,70.9,67.5,29.97,NW,315,0.0,3.1,89,0.00,,CLR,0.00,VWS V12.08,2013-08-31 13:10:00,
2013-08-31 09:15:00,70.9,67.5,29.97,NW,315,0.0,3.1,89,0.00,,CLR,0.00,VWS V12.08,2013-08-31 13:15:00,
2013-08-31 09:20:00,71.4,67.7,29.97,NW,315,0.0,0.0,88,0.00,,CLR,0.00,VWS V12.08,2013-08-31 13:20:00,
2013-08-31 09:25:00,71.4,67.7,29.97,NNW,338,0.0,0.0,88,0.00,,CLR,0.00,VWS V12.08,2013-08-31 13:25:00,
2013-08-31 09:30:00,71.8,67.7,29.97,NW,315,0.0,0.0,87,0.00,,CLR,0.00,VWS V12.08,2013-08-31 13:30:00,
2013-08-31 09:35:00,72.3,68.2,29.98,North,0,0.0,0.0,87,0.00,,CLR,0.00,VWS V12.08,2013-08-31 13:35:00,
2013-08-31 09:40:00,72.5,68.4,29.98,North,0,0.4,0.4,87,0.00,,CLR,0.00,VWS V12.08,2013-08-31 13:40:00,
2013-08-31 09:45:00,73.0,68.6,29.98,NNW,338,0.0,3.1,86,0.00,,CLR,0.00,VWS V12.08,2013-08-31 13:45:00,
2013-08-31 09:50:00,73.2,68.4,29.97,NNE,22,0.0,3.1,85,0.00,,CLR,0.00,VWS V12.08,2013-08-31 13:50:00,
2013-08-31 09:55:00,73.8,69.0,29.97,NW,315,0.0,3.1,85,0.00,,CLR,0.00,VWS V12.08,2013-08-31 13:55:00,
2013-08-31 10:00:00,73.8,69.0,29.97,NW,315,0.0,0.0,85,0.00,,CLR,0.00,VWS V12.08,2013-08-31 14:00:00,
2013-08-31 10:05:00,73.8,69.0,29.97,NW,315,0.0,0.0,85,0.00,,CLR,0.00,VWS V12.08,2013-08-31 14:05:00,
2013-08-31 10:10:00,73.8,69.0,29.97,NW,315,0.0,0.0,85,0.00,,CLR,0.00,VWS V12.08,2013-08-31 14:10:00,
2013-08-31 10:15:00,73.8,69.0,29.97,NW,315,0.0,0.0,85,0.00,,CLR,0.00,VWS V12.08,2013-08-31 14:15:00,
2013-08-31 10:20:00,75.4,69.2,29.97,WNW,292,0.0,0.0,81,0.00,,CLR,0.00,VWS V12.08,2013-08-31 14:20:00,
2013-08-31 10:25:00,75.7,69.5,29.97,NW,315,0.0,0.0,81,0.00,,CLR,0.00,VWS V12.08,2013-08-31 14:25:00,
2013-08-31 10:30:00,75.9,69.3,29.97,NW,315,0.0,0.0,80,0.00,,CLR,0.00,VWS V12.08,2013-08-31 14:30:00,
2013-08-31 10:35:00,76.1,69.5,29.97,West,270,0.0,0.0,80,0.00,,CLR,0.00,VWS V12.08,2013-08-31 14:35:00,
2013-08-31 10:40:00,76.6,70.4,29.96,WNW,292,0.0,0.0,81,0.00,,CLR,0.00,VWS V12.08,2013-08-31 14:40:00,
2013-08-31 10:45:00,76.8,70.6,29.96,WNW,292,0.0,0.0,81,0.00,,CLR,0.00,VWS V12.08,2013-08-31 14:45:00,
2013-08-31 10:50:00,77.4,71.1,29.96,WNW,292,0.0,0.0,81,0.00,,CLR,0.00,VWS V12.08,2013-08-31 14:50:00,
2013-08-31 10:55:00,78.4,72.1,29.96,NW,315,0.0,0.0,81,0.00,,CLR,0.00,VWS V12.08,2013-08-31 14:55:00,
2013-08-31 11:00:00,78.6,72.3,29.96,NW,315,0.0,0.0,81,0.00,,CLR,0.00,VWS V12.08,2013-08-31 15:00:00,
2013-08-31 11:05:00,79.5,72.4,29.96,WNW,292,0.0,0.0,79,0.00,,CLR,0.00,VWS V12.08,2013-08-31 15:05:00,
2013-08-31 11:10:00,79.9,71.2,29.96,WSW,248,0.0,0.0,75,0.00,,CLR,0.00,VWS V12.08,2013-08-31 15:10:00,
2013-08-31 11:15:00,80.2,70.8,29.96,WSW,248,0.0,0.0,73,0.00,,CLR,0.00,VWS V12.08,2013-08-31 15:15:00,
2013-08-31 11:20:00,80.4,71.0,29.97,WSW,248,0.0,0.0,73,0.00,,CLR,0.00,VWS V12.08,2013-08-31 15:20:00,
2013-08-31 11:25:00,80.4,71.0,29.97,WSW,248,0.0,0.0,73,0.00,,CLR,0.00,VWS V12.08,2013-08-31 15:25:00,
2013-08-31 11:30:00,80.8,70.5,29.97,NW,315,0.0,0.0,71,0.00,,CLR,0.00,VWS V12.08,2013-08-31 15:30:00,
2013-08-31 11:35:00,81.1,70.8,29.97,NW,315,0.0,0.0,71,0.00,,CLR,0.00,VWS V12.08,2013-08-31 15:35:00,
2013-08-31 11:40:00,81.5,71.2,29.97,NW,315,0.0,0.0,71,0.00,,CLR,0.00,VWS V12.08,2013-08-31 15:40:00,
2013-08-31 11:45:00,81.7,70.5,29.97,WNW,292,1.3,1.3,69,0.00,,CLR,0.00,VWS V12.08,2013-08-31 15:45:00,
2013-08-31 11:50:00,81.7,70.5,29.97,WNW,292,1.3,1.3,69,0.00,,CLR,0.00,VWS V12.08,2013-08-31 15:50:00,
2013-08-31 11:55:00,82.6,72.7,29.96,ENE,68,0.0,1.3,72,0.00,,CLR,0.00,VWS V12.08,2013-08-31 15:55:00,
2013-08-31 12:00:00,83.1,73.6,29.96,ENE,68,0.0,0.0,73,0.00,,CLR,0.00,VWS V12.08,2013-08-31 16:00:00,
2013-08-31 12:05:00,83.5,73.9,29.97,ENE,68,0.0,0.0,73,0.00,,CLR,0.00,VWS V12.08,2013-08-31 16:05:00,
2013-08-31 12:10:00,83.7,72.4,29.96,East,90,0.0,0.0,69,0.00,,CLR,0.00,VWS V12.08,2013-08-31 16:10:00,
2013-08-31 12:15:00,83.8,73.0,29.96,ENE,68,0.0,0.0,70,0.00,,CLR,0.00,VWS V12.08,2013-08-31 16:15:00,
2013-08-31 12:20:00,83.8,73.0,29.96,ENE,68,0.0,0.0,70,0.00,,CLR,0.00,VWS V12.08,2013-08-31 16:20:00,
2013-08-31 12:25:00,84.6,74.1,29.96,ENE,68,0.0,0.0,71,0.00,,CLR,0.00,VWS V12.08,2013-08-31 16:25:00,
2013-08-31 12:30:00,84.7,72.6,29.96,East,90,0.0,0.0,67,0.00,,CLR,0.00,VWS V12.08,2013-08-31 16:30:00,
2013-08-31 12:35:00,84.0,71.4,29.95,ENE,68,0.0,0.0,66,0.00,,CLR,0.00,VWS V12.08,2013-08-31 16:35:00,
2013-08-31 12:40:00,84.0,71.4,29.95,ENE,68,0.0,0.0,66,0.00,,CLR,0.00,VWS V12.08,2013-08-31 16:40:00,
2013-08-31 12:45:00,84.4,70.4,29.94,NW,315,0.0,0.0,63,0.00,,CLR,0.00,VWS V12.08,2013-08-31 16:45:00,
2013-08-31 12:50:00,84.6,70.1,29.95,NW,315,0.0,0.0,62,0.00,,CLR,0.00,VWS V12.08,2013-08-31 16:50:00,
2013-08-31 12:55:00,85.3,73.5,29.95,NNE,22,0.0,0.0,68,0.00,,CLR,0.00,VWS V12.08,2013-08-31 16:55:00,
2013-08-31 13:00:00,85.6,74.3,29.94,NE,45,0.0,0.0,69,0.00,,CLR,0.00,VWS V12.08,2013-08-31 17:00:00,
2013-08-31 13:05:00,85.8,74.5,29.94,NE,45,0.0,0.0,69,0.00,,CLR,0.00,VWS V12.08,2013-08-31 17:05:00,
2013-08-31 13:10:00,85.8,74.5,29.94,NE,45,0.0,0.0,69,0.00,,CLR,0.00,VWS V12.08,2013-08-31 17:10:00,
2013-08-31 13:15:00,86.4,72.8,29.94,WSW,248,0.0,0.0,64,0.00,,CLR,0.00,VWS V12.08,2013-08-31 17:15:00,
2013-08-31 13:20:00,86.4,72.8,29.94,WSW,248,0.0,0.0,64,0.00,,CLR,0.00,VWS V12.08,2013-08-31 17:20:00,
2013-08-31 13:25:00,84.7,72.1,29.93,ENE,68,0.0,0.9,66,0.00,,CLR,0.00,VWS V12.08,2013-08-31 17:25:00,
2013-08-31 13:30:00,84.7,72.1,29.93,ENE,68,0.0,0.9,66,0.00,,CLR,0.00,VWS V12.08,2013-08-31 17:30:00,
2013-08-31 13:35:00,83.5,72.2,29.93,East,90,0.0,0.9,69,0.00,,CLR,0.00,VWS V12.08,2013-08-31 17:35:00,
2013-08-31 13:40:00,82.9,72.2,29.93,ENE,68,0.0,0.0,70,0.00,,CLR,0.00,VWS V12.08,2013-08-31 17:40:00,
2013-08-31 13:45:00,82.8,72.8,29.92,ENE,68,0.0,0.0,72,0.00,,CLR,0.00,VWS V12.08,2013-08-31 17:45:00,
2013-08-31 13:50:00,83.3,73.8,29.92,East,90,0.0,1.1,73,0.00,,CLR,0.00,VWS V12.08,2013-08-31 17:50:00,
2013-08-31 13:55:00,83.3,72.9,29.92,SE,135,0.0,1.1,71,0.00,,CLR,0.00,VWS V12.08,2013-08-31 17:55:00,
2013-08-31 14:00:00,83.3,72.9,29.92,SE,135,0.0,0.0,71,0.00,,CLR,0.00,VWS V12.08,2013-08-31 18:00:00,
2013-08-31 14:05:00,83.3,72.9,29.92,SE,135,0.0,0.0,71,0.00,,CLR,0.00,VWS V12.08,2013-08-31 18:05:00,
2013-08-31 14:10:00,83.3,72.9,29.92,SE,135,0.0,0.0,71,0.00,,CLR,0.00,VWS V12.08,2013-08-31 18:10:00,
2013-08-31 14:15:00,83.3,72.9,29.92,SE,135,0.0,0.0,71,0.00,,CLR,0.00,VWS V12.08,2013-08-31 18:15:00,
2013-08-31 14:20:00,83.3,72.9,29.92,SE,135,0.0,0.0,71,0.00,,CLR,0.00,VWS V12.08,2013-08-31 18:20:00,
2013-08-31 14:25:00,83.1,72.3,29.93,ESE,112,0.0,0.0,70,0.00,,CLR,0.00,VWS V12.08,2013-08-31 18:25:00,
2013-08-31 14:30:00,82.2,72.3,29.92,ESE,112,0.0,0.0,72,0.00,,CLR,0.00,VWS V12.08,2013-08-31 18:30:00,
2013-08-31 14:35:00,82.2,72.3,29.92,ESE,112,0.0,0.0,72,0.00,,CLR,0.00,VWS V12.08,2013-08-31 18:35:00,
2013-08-31 14:40:00,79.5,70.9,29.95,West,270,5.1,6.3,75,0.00,,CLR,0.00,VWS V12.08,2013-08-31 18:40:00,
2013-08-31 14:45:00,79.2,70.2,29.96,West,270,5.1,6.3,74,0.00,,CLR,0.00,VWS V12.08,2013-08-31 18:45:00,
2013-08-31 14:50:00,77.2,67.9,29.96,NW,315,1.1,6.3,73,0.00,,CLR,0.00,VWS V12.08,2013-08-31 18:50:00,
2013-08-31 14:55:00,75.6,66.7,29.96,ENE,68,0.0,6.3,74,0.04,,CLR,0.09,VWS V12.08,2013-08-31 18:55:00,
2013-08-31 15:00:00,75.6,66.7,29.96,ENE,68,0.0,0.0,74,0.09,,CLR,0.09,VWS V12.08,2013-08-31 19:00:00,
2013-08-31 15:05:00,75.6,66.7,29.96,ENE,68,0.0,0.0,74,0.09,,CLR,0.09,VWS V12.08,2013-08-31 19:05:00,
2013-08-31 15:10:00,72.3,65.8,29.95,NW,315,0.0,0.0,80,0.11,,CLR,0.15,VWS V12.08,2013-08-31 19:10:00,
2013-08-31 15:15:00,72.3,65.8,29.95,NW,315,0.0,0.0,80,0.15,,CLR,0.15,VWS V12.08,2013-08-31 19:15:00,
2013-08-31 15:20:00,72.3,66.2,29.95,NE,45,0.0,0.0,81,0.15,,CLR,0.15,VWS V12.08,2013-08-31 19:20:00,
2013-08-31 15:25:00,72.1,66.3,29.95,NE,45,0.0,0.0,82,0.15,,CLR,0.15,VWS V12.08,2013-08-31 19:25:00,
2013-08-31 15:31:00,72.3,66.9,29.94,NE,45,0.0,0.0,83,0.17,,CLR,0.17,VWS V12.08,2013-08-31 19:31:00,
2013-08-31 15:36:00,72.5,67.1,29.93,NE,45,0.0,0.0,83,0.17,,CLR,0.17,VWS V12.08,2013-08-31 19:36:00,
2013-08-31 15:41:00,72.7,67.6,29.93,ENE,68,0.0,0.0,84,0.17,,CLR,0.17,VWS V12.08,2013-08-31 19:41:00,
2013-08-31 15:46:00,72.7,67.6,29.92,ENE,68,0.0,0.0,84,0.17,,CLR,0.17,VWS V12.08,2013-08-31 19:46:00,
2013-08-31 15:51:00,72.7,67.6,29.92,ENE,68,0.0,0.0,84,0.17,,CLR,0.17,VWS V12.08,2013-08-31 19:51:00,
2013-08-31 15:56:00,72.7,67.6,29.92,ENE,68,0.0,0.0,84,0.13,,CLR,0.17,VWS V12.08,2013-08-31 19:56:00,
2013-08-31 16:01:00,74.7,69.5,29.93,ENE,68,0.0,0.0,84,0.09,,CLR,0.17,VWS V12.08,2013-08-31 20:01:00,
2013-08-31 16:06:00,74.7,69.5,29.93,ENE,68,0.0,0.0,84,0.09,,CLR,0.17,VWS V12.08,2013-08-31 20:06:00,
2013-08-31 16:11:00,75.2,70.0,29.93,ENE,68,0.0,0.0,84,0.02,,CLR,0.17,VWS V12.08,2013-08-31 20:11:00,
2013-08-31 16:16:00,75.0,69.5,29.93,WNW,292,0.0,0.0,83,0.02,,CLR,0.17,VWS V12.08,2013-08-31 20:16:00,
2013-08-31 16:21:00,75.0,69.2,29.93,WNW,292,0.0,0.0,82,0.02,,CLR,0.17,VWS V12.08,2013-08-31 20:21:00,
2013-08-31 16:26:00,74.8,68.6,29.93,WNW,292,0.0,0.0,81,0.00,,CLR,0.17,VWS V12.08,2013-08-31 20:26:00,
2013-08-31 16:31:00,74.8,68.6,29.93,NE,45,0.0,0.0,81,0.00,,CLR,0.17,VWS V12.08,2013-08-31 20:31:00,
2013-08-31 16:36:00,74.8,68.6,29.93,NE,45,0.0,0.0,81,0.00,,CLR,0.17,VWS V12.08,2013-08-31 20:36:00,
2013-08-31 16:41:00,75.0,69.5,29.93,NE,45,0.0,0.0,83,0.00,,CLR,0.17,VWS V12.08,2013-08-31 20:41:00,
2013-08-31 16:46:00,75.0,69.5,29.93,NE,45,0.0,0.0,83,0.00,,CLR,0.17,VWS V12.08,2013-08-31 20:46:00,
2013-08-31 16:51:00,75.7,70.6,29.93,ENE,68,0.0,0.0,84,0.00,,CLR,0.17,VWS V12.08,2013-08-31 20:51:00,
2013-08-31 16:56:00,75.9,70.4,29.93,NE,45,0.0,1.3,83,0.00,,CLR,0.17,VWS V12.08,2013-08-31 20:56:00,
2013-08-31 17:01:00,75.9,70.4,29.92,NE,45,0.0,0.0,83,0.00,,CLR,0.17,VWS V12.08,2013-08-31 21:01:00,
2013-08-31 17:06:00,76.6,70.7,29.92,NE,45,0.0,0.0,82,0.00,,CLR,0.17,VWS V12.08,2013-08-31 21:06:00,
2013-08-31 17:11:00,77.2,71.6,29.93,NE,45,0.0,0.0,83,0.00,,CLR,0.17,VWS V12.08,2013-08-31 21:11:00,
2013-08-31 17:16:00,77.2,71.6,29.93,NE,45,0.0,0.0,83,0.00,,CLR,0.17,VWS V12.08,2013-08-31 21:16:00,
2013-08-31 17:21:00,77.4,71.4,29.92,ENE,68,0.0,0.0,82,0.00,,CLR,0.17,VWS V12.08,2013-08-31 21:21:00,
2013-08-31 17:26:00,77.2,70.9,29.92,East,90,0.0,0.0,81,0.00,,CLR,0.17,VWS V12.08,2013-08-31 21:26:00,
2013-08-31 17:31:00,77.2,70.9,29.92,NE,45,0.0,0.0,81,0.00,,CLR,0.17,VWS V12.08,2013-08-31 21:31:00,
2013-08-31 17:36:00,76.8,70.6,29.91,ENE,68,0.0,0.0,81,0.00,,CLR,0.17,VWS V12.08,2013-08-31 21:36:00,
2013-08-31 17:41:00,76.6,70.4,29.90,East,90,0.0,0.0,81,0.00,,CLR,0.17,VWS V12.08,2013-08-31 21:41:00,
2013-08-31 17:46:00,76.3,70.0,29.90,West,270,0.0,0.0,81,0.00,,CLR,0.17,VWS V12.08,2013-08-31 21:46:00,
2013-08-31 17:51:00,76.3,70.0,29.90,West,270,0.0,0.0,81,0.00,,CLR,0.17,VWS V12.08,2013-08-31 21:51:00,
2013-08-31 17:56:00,75.7,68.8,29.91,NNW,338,0.0,0.0,79,0.00,,CLR,0.17,VWS V12.08,2013-08-31 21:56:00,
2013-08-31 18:01:00,75.6,68.6,29.91,ENE,68,0.0,0.0,79,0.00,,CLR,0.17,VWS V12.08,2013-08-31 22:01:00,
2013-08-31 18:06:00,75.7,69.1,29.90,ENE,68,0.0,0.0,80,0.00,,CLR,0.17,VWS V12.08,2013-08-31 22:06:00,
2013-08-31 18:11:00,75.9,69.7,29.90,ENE,68,0.0,0.0,81,0.00,,CLR,0.17,VWS V12.08,2013-08-31 22:11:00,
2013-08-31 18:16:00,75.9,69.7,29.90,East,90,0.0,0.0,81,0.00,,CLR,0.17,VWS V12.08,2013-08-31 22:16:00,
2013-08-31 18:21:00,76.3,70.0,29.91,ENE,68,0.0,0.0,81,0.00,,CLR,0.17,VWS V12.08,2013-08-31 22:21:00,
2013-08-31 18:26:00,76.8,70.2,29.91,WNW,292,0.0,0.0,80,0.00,,CLR,0.17,VWS V12.08,2013-08-31 22:26:00,
2013-08-31 18:31:00,77.0,70.4,29.91,NW,315,0.0,0.0,80,0.00,,CLR,0.17,VWS V12.08,2013-08-31 22:31:00,
2013-08-31 18:36:00,77.2,70.5,29.91,WNW,292,0.0,0.0,80,0.00,,CLR,0.17,VWS V12.08,2013-08-31 22:36:00,
2013-08-31 18:41:00,77.2,70.2,29.91,NW,315,0.0,0.0,79,0.00,,CLR,0.17,VWS V12.08,2013-08-31 22:41:00,
2013-08-31 18:46:00,76.8,69.8,29.91,NW,315,0.0,0.0,79,0.00,,CLR,0.17,VWS V12.08,2013-08-31 22:46:00,
2013-08-31 18:51:00,76.8,69.8,29.92,WNW,292,4.0,4.0,79,0.00,,CLR,0.17,VWS V12.08,2013-08-31 22:51:00,
2013-08-31 18:56:00,76.6,70.0,29.92,WNW,292,2.2,4.0,80,0.00,,CLR,0.17,VWS V12.08,2013-08-31 22:56:00,
2013-08-31 19:01:00,76.5,69.8,29.92,NW,315,0.9,0.9,80,0.00,,CLR,0.17,VWS V12.08,2013-08-31 23:01:00,
2013-08-31 19:06:00,76.3,69.7,29.91,NW,315,0.9,0.9,80,0.00,,CLR,0.17,VWS V12.08,2013-08-31 23:06:00,
2013-08-31 19:11:00,76.3,70.0,29.92,WNW,292,1.8,1.8,81,0.00,,CLR,0.17,VWS V12.08,2013-08-31 23:11:00,
2013-08-31 19:16:00,76.1,69.8,29.92,WSW,248,0.0,1.8,81,0.00,,CLR,0.17,VWS V12.08,2013-08-31 23:16:00,
2013-08-31 19:21:00,75.9,69.7,29.92,NNW,338,0.0,0.0,81,0.00,,CLR,0.17,VWS V12.08,2013-08-31 23:21:00,
2013-08-31 19:26:00,75.9,69.7,29.92,NNW,338,0.0,0.0,81,0.00,,CLR,0.17,VWS V12.08,2013-08-31 23:26:00,
2013-08-31 19:31:00,75.7,69.9,29.92,WNW,292,1.1,1.1,82,0.00,,CLR,0.17,VWS V12.08,2013-08-31 23:31:00,
2013-08-31 19:36:00,75.7,69.9,29.92,NW,315,0.0,1.1,82,0.00,,CLR,0.17,VWS V12.08,2013-08-31 23:36:00,
2013-08-31 19:41:00,75.6,69.7,29.92,WNW,292,0.0,0.0,82,0.00,,CLR,0.17,VWS V12.08,2013-08-31 23:41:00,
2013-08-31 19:46:00,75.4,69.5,29.92,WNW,292,0.0,0.0,82,0.00,,CLR,0.17,VWS V12.08,2013-08-31 23:46:00,
2013-08-31 19:51:00,75.0,69.2,29.91,WNW,292,0.0,0.0,82,0.00,,CLR,0.17,VWS V12.08,2013-08-31 23:51:00,
2013-08-31 19:56:00,75.0,69.2,29.92,WNW,292,0.0,0.0,82,0.00,,CLR,0.17,VWS V12.08,2013-08-31 23:56:00,
2013-08-31 20:01:00,75.0,69.2,29.91,WNW,292,0.0,0.0,82,0.00,,CLR,0.17,VWS V12.08,2013-09-01 00:01:00,
2013-08-31 20:06:00,75.0,69.2,29.92,WNW,292,0.0,0.0,82,0.00,,CLR,0.17,VWS V12.08,2013-09-01 00:06:00,
2013-08-31 20:11:00,74.1,68.6,29.93,ENE,68,0.0,0.0,83,0.00,,CLR,0.17,VWS V12.08,2013-09-01 00:11:00,
2013-08-31 20:16:00,74.1,68.6,29.93,ENE,68,0.0,0.0,83,0.00,,CLR,0.17,VWS V12.08,2013-09-01 00:16:00,
2013-08-31 20:21:00,73.9,68.5,29.93,ENE,68,0.0,0.0,83,0.00,,CLR,0.17,VWS V12.08,2013-09-01 00:21:00,
2013-08-31 20:26:00,73.6,68.1,29.93,ENE,68,0.0,0.0,83,0.00,,CLR,0.17,VWS V12.08,2013-09-01 00:26:00,
2013-08-31 20:31:00,73.6,68.1,29.93,ENE,68,0.0,0.0,83,0.00,,CLR,0.17,VWS V12.08,2013-09-01 00:31:00,
2013-08-31 20:36:00,73.2,68.1,29.94,ENE,68,0.0,0.0,84,0.00,,CLR,0.17,VWS V12.08,2013-09-01 00:36:00,
2013-08-31 20:41:00,73.0,67.9,29.94,ENE,68,0.0,0.0,84,0.00,,CLR,0.17,VWS V12.08,2013-09-01 00:41:00,
2013-08-31 20:46:00,73.0,67.9,29.94,ENE,68,0.0,0.0,84,0.00,,CLR,0.17,VWS V12.08,2013-09-01 00:46:00,
2013-08-31 20:51:00,73.0,67.9,29.94,ENE,68,0.0,0.0,84,0.00,,CLR,0.17,VWS V12.08,2013-09-01 00:51:00,
2013-08-31 20:56:00,73.0,67.9,29.93,ENE,68,0.0,0.0,84,0.00,,CLR,0.17,VWS V12.08,2013-09-01 00:56:00,
2013-08-31 21:01:00,72.3,67.2,29.94,ENE,68,0.0,0.0,84,0.00,,CLR,0.17,VWS V12.08,2013-09-01 01:01:00,
2013-08-31 21:06:00,72.0,66.9,29.94,ENE,68,0.0,0.0,84,0.00,,CLR,0.17,VWS V12.08,2013-09-01 01:06:00,
2013-08-31 21:11:00,71.8,67.0,29.94,ENE,68,0.0,0.0,85,0.00,,CLR,0.17,VWS V12.08,2013-09-01 01:11:00,
2013-08-31 21:16:00,71.8,67.0,29.95,ENE,68,0.0,0.0,85,0.00,,CLR,0.17,VWS V12.08,2013-09-01 01:16:00,
2013-08-31 21:21:00,71.4,66.7,29.94,East,90,0.0,0.0,85,0.00,,CLR,0.17,VWS V12.08,2013-09-01 01:21:00,
2013-08-31 21:26:00,71.4,66.7,29.94,East,90,0.0,0.0,85,0.00,,CLR,0.17,VWS V12.08,2013-09-01 01:26:00,
2013-08-31 21:31:00,71.4,66.7,29.94,East,90,0.0,0.0,85,0.00,,CLR,0.17,VWS V12.08,2013-09-01 01:31:00,
2013-08-31 21:36:00,71.4,66.7,29.94,East,90,0.0,0.0,85,0.00,,CLR,0.17,VWS V12.08,2013-09-01 01:36:00,
2013-08-31 21:41:00,71.2,66.5,29.94,East,90,0.0,0.0,85,0.00,,CLR,0.17,VWS V12.08,2013-09-01 01:41:00,
2013-08-31 21:46:00,71.2,66.5,29.94,East,90,0.0,0.0,85,0.00,,CLR,0.17,VWS V12.08,2013-09-01 01:46:00,
2013-08-31 21:51:00,71.2,66.5,29.94,East,90,0.0,0.0,85,0.00,,CLR,0.17,VWS V12.08,2013-09-01 01:51:00,
2013-08-31 21:56:00,70.9,66.5,29.94,East,90,0.0,0.0,86,0.00,,CLR,0.17,VWS V12.08,2013-09-01 01:56:00,
2013-08-31 22:01:00,70.9,66.5,29.94,East,90,0.0,0.0,86,0.00,,CLR,0.17,VWS V12.08,2013-09-01 02:01:00,
2013-08-31 22:06:00,70.9,66.5,29.94,East,90,0.0,0.0,86,0.00,,CLR,0.17,VWS V12.08,2013-09-01 02:06:00,
2013-08-31 22:11:00,70.7,66.3,29.94,East,90,0.0,0.0,86,0.00,,CLR,0.17,VWS V12.08,2013-09-01 02:11:00,
2013-08-31 22:16:00,70.7,66.3,29.94,East,90,0.0,0.0,86,0.00,,CLR,0.17,VWS V12.08,2013-09-01 02:16:00,
2013-08-31 22:21:00,70.7,66.3,29.94,East,90,0.0,0.0,86,0.00,,CLR,0.17,VWS V12.08,2013-09-01 02:21:00,
2013-08-31 22:26:00,70.3,66.0,29.93,East,90,0.0,0.0,86,0.00,,CLR,0.17,VWS V12.08,2013-09-01 02:26:00,
2013-08-31 22:31:00,70.3,66.0,29.93,East,90,0.0,0.0,86,0.00,,CLR,0.17,VWS V12.08,2013-09-01 02:31:00,
2013-08-31 22:36:00,70.3,66.0,29.93,East,90,0.0,0.0,86,0.00,,CLR,0.17,VWS V12.08,2013-09-01 02:36:00,
2013-08-31 22:41:00,70.2,65.8,29.93,ENE,68,0.0,0.0,86,0.00,,CLR,0.17,VWS V12.08,2013-09-01 02:41:00,
2013-08-31 22:46:00,70.0,65.6,29.93,ENE,68,0.0,0.0,86,0.00,,CLR,0.17,VWS V12.08,2013-09-01 02:46:00,
2013-08-31 22:51:00,70.0,65.6,29.93,ENE,68,0.0,0.0,86,0.00,,CLR,0.17,VWS V12.08,2013-09-01 02:51:00,
2013-08-31 22:56:00,70.0,65.6,29.93,ENE,68,0.0,0.0,86,0.00,,CLR,0.17,VWS V12.08,2013-09-01 02:56:00,
2013-08-31 23:01:00,70.0,65.6,29.93,ENE,68,0.0,0.0,86,0.00,,CLR,0.17,VWS V12.08,2013-09-01 03:01:00,
2013-08-31 23:06:00,69.6,65.2,29.93,ENE,68,0.0,0.0,86,0.00,,CLR,0.17,VWS V12.08,2013-09-01 03:06:00,
2013-08-31 23:11:00,69.6,65.6,29.93,East,90,0.0,0.0,87,0.00,,CLR,0.17,VWS V12.08,2013-09-01 03:11:00,
2013-08-31 23:16:00,69.6,65.6,29.93,East,90,0.0,0.0,87,0.00,,CLR,0.17,VWS V12.08,2013-09-01 03:16:00,
2013-08-31 23:21:00,69.6,65.6,29.93,East,90,0.0,0.0,87,0.00,,CLR,0.17,VWS V12.08,2013-09-01 03:21:00,
2013-08-31 23:26:00,69.6,65.6,29.92,East,90,0.0,0.0,87,0.00,,CLR,0.17,VWS V12.08,2013-09-01 03:26:00,
2013-08-31 23:31:00,69.6,65.6,29.93,East,90,0.0,0.0,87,0.00,,CLR,0.17,VWS V12.08,2013-09-01 03:31:00,
2013-08-31 23:36:00,69.4,65.4,29.93,East,90,0.0,0.0,87,0.00,,CLR,0.17,VWS V12.08,2013-09-01 03:36:00,
2013-08-31 23:41:00,69.4,65.4,29.93,East,90,0.0,0.0,87,0.00,,CLR,0.17,VWS V12.08,2013-09-01 03:41:00,
2013-08-31 23:46:00,69.4,65.4,29.93,East,90,0.0,0.0,87,0.00,,CLR,0.17,VWS V12.08,2013-09-01 03:46:00,
2013-08-31 23:51:00,69.4,65.4,29.93,East,90,0.0,0.0,87,0.00,,CLR,0.17,VWS V12.08,2013-09-01 03:51:00,
2013-08-31 23:56:00,69.4,65.4,29.93,East,90,0.0,0.0,87,0.00,,CLR,0.17,VWS V12.08,2013-09-01 03:56:00,